Time;durP1;ratioP1;P1;durP2;ratioP2;P2;SDS_P1;SDS_P2;PMS_P1;PMS_P2;Temp;Humidity;BMP_temperature;BMP_pressure;BME280_temperature;BME280_humidity;BME280_pressure;Samples;Min_cycle;Max_cycle;Signal;HPM_P1;HPM_P2
2023/11/27 00:00:31;;;;;;;2.43;1.03;;;;;;;-0.36;100.00;100522.72;5033701;28;20554;-65
2023/11/27 00:02:58;;;;;;;3.20;1.40;;;;;;;-0.33;100.00;100522.25;5033733;28;20443;-65
2023/11/27 00:05:24;;;;;;;3.33;1.10;;;;;;;-0.39;100.00;100519.72;5033229;28;20943;-65
2023/11/27 00:07:52;;;;;;;1.73;0.43;;;;;;;-0.42;100.00;100518.31;5033648;28;20439;-65
2023/11/27 00:10:18;;;;;;;2.20;0.97;;;;;;;-0.40;100.00;100508.28;5033596;28;20458;-65
2023/11/27 00:12:45;;;;;;;2.50;0.77;;;;;;;-0.46;100.00;100511.03;5033470;28;20467;-64
2023/11/27 00:15:11;;;;;;;3.30;1.30;;;;;;;-0.42;100.00;100509.53;5033364;28;20263;-65
2023/11/27 00:17:38;;;;;;;2.10;0.97;;;;;;;-0.37;100.00;100513.13;5033191;28;20962;-65
2023/11/27 00:20:06;;;;;;;3.40;1.10;;;;;;;-0.32;100.00;100512.44;5033340;28;20815;-65
2023/11/27 00:22:32;;;;;;;5.30;3.07;;;;;;;-0.20;100.00;100512.44;5033855;28;20439;-65
2023/11/27 00:25:00;;;;;;;2.57;1.30;;;;;;;-0.23;100.00;100508.38;5033381;28;20566;-65
2023/11/27 00:27:27;;;;;;;2.10;1.00;;;;;;;-0.27;100.00;100510.72;5033043;28;20450;-65
2023/11/27 00:29:54;;;;;;;4.13;1.40;;;;;;;-0.28;100.00;100501.09;5033599;28;20447;-65
2023/11/27 00:32:20;;;;;;;5.30;2.23;;;;;;;-0.27;100.00;100504.56;5033085;28;20439;-65
2023/11/27 00:34:47;;;;;;;3.57;1.77;;;;;;;-0.30;100.00;100510.34;5033422;28;20578;-65
2023/11/27 00:37:14;;;;;;;1.93;0.73;;;;;;;-0.34;100.00;100509.19;5033672;28;20526;-65
2023/11/27 00:39:40;;;;;;;2.90;1.23;;;;;;;-0.35;100.00;100507.59;5033731;28;20526;-65
2023/11/27 00:42:08;;;;;;;2.20;1.33;;;;;;;-0.32;100.00;100502.59;5033243;28;20501;-65
2023/11/27 00:44:35;;;;;;;2.23;0.83;;;;;;;-0.31;100.00;100493.59;5033076;28;20495;-65
2023/11/27 00:47:01;;;;;;;2.30;0.97;;;;;;;-0.33;100.00;100500.16;5033460;28;20467;-65
2023/11/27 00:49:28;;;;;;;2.30;0.60;;;;;;;-0.34;100.00;100503.88;5032980;28;20522;-65
2023/11/27 00:51:55;;;;;;;2.67;1.10;;;;;;;-0.35;100.00;100495.09;5035981;28;20882;-66
2023/11/27 00:54:21;;;;;;;3.23;1.67;;;;;;;-0.28;100.00;100495.75;5036934;28;21037;-65
2023/11/27 00:56:48;;;;;;;2.50;1.47;;;;;;;-0.25;100.00;100497.16;5036921;28;20562;-66
2023/11/27 00:59:16;;;;;;;2.07;0.73;;;;;;;-0.18;100.00;100497.03;5037251;28;20534;-66
2023/11/27 01:01:42;;;;;;;7.63;1.07;;;;;;;-0.18;100.00;100497.03;5036667;28;20534;-66
2023/11/27 01:04:09;;;;;;;2.30;0.87;;;;;;;-0.23;100.00;100494.25;5036830;28;20455;-66
2023/11/27 01:06:36;;;;;;;2.23;0.97;;;;;;;-0.21;100.00;100492.19;5036771;28;20945;-65
2023/11/27 01:09:02;;;;;;;2.60;1.73;;;;;;;-0.19;100.00;100490.09;5036520;28;20545;-66
2023/11/27 01:11:29;;;;;;;2.00;0.67;;;;;;;-0.22;100.00;100491.38;5037115;28;20439;-65
2023/11/27 01:13:56;;;;;;;2.83;1.63;;;;;;;-0.15;100.00;100494.72;5036750;28;20609;-65
2023/11/27 01:16:25;;;;;;;1.93;0.70;;;;;;;-0.17;100.00;100485.38;5036956;28;20549;-66
2023/11/27 01:18:52;;;;;;;2.10;0.80;;;;;;;-0.17;100.00;100488.84;5036665;28;20443;-66
2023/11/27 01:21:19;;;;;;;5.13;2.90;;;;;;;-0.21;100.00;100490.34;5036930;28;20530;-65
2023/11/27 01:23:45;;;;;;;13.50;3.13;;;;;;;-0.26;100.00;100480.38;5036560;28;20529;-65
2023/11/27 01:26:12;;;;;;;4.00;1.40;;;;;;;-0.26;100.00;100471.59;5037330;28;20435;-65
2023/11/27 01:28:39;;;;;;;5.90;2.53;;;;;;;-0.28;100.00;100474.47;5036549;28;20516;-65
2023/11/27 01:31:05;;;;;;;2.57;0.63;;;;;;;-0.24;100.00;100476.69;5036468;28;20493;-65
2023/11/27 01:33:33;;;;;;;20.50;1.50;;;;;;;-0.19;100.00;100476.78;5036659;28;20554;-65
2023/11/27 01:36:00;;;;;;;4.13;1.27;;;;;;;-0.20;100.00;100472.50;5036349;28;20744;-65
2023/11/27 01:38:27;;;;;;;1.80;0.40;;;;;;;-0.19;100.00;100474.13;5036710;28;20535;-65
2023/11/27 01:40:53;;;;;;;2.77;1.33;;;;;;;-0.12;100.00;100475.63;5036245;28;20471;-65
2023/11/27 01:43:21;;;;;;;1.90;0.70;;;;;;;-0.01;100.00;100466.00;5036196;28;20471;-65
2023/11/27 01:45:48;;;;;;;2.00;0.83;;;;;;;0.04;100.00;100467.97;5036155;28;20467;-65
2023/11/27 01:48:15;;;;;;;2.67;0.77;;;;;;;0.07;100.00;100465.66;5036153;28;20994;-65
2023/11/27 01:50:43;;;;;;;1.80;0.40;;;;;;;0.09;100.00;100465.41;5036160;28;20487;-65
2023/11/27 01:53:10;;;;;;;2.97;1.07;;;;;;;0.14;100.00;100455.69;5036227;28;20522;-65
2023/11/27 01:55:37;;;;;;;2.50;1.50;;;;;;;0.12;100.00;100459.63;5035847;28;20578;-65
2023/11/27 01:58:03;;;;;;;6.60;2.30;;;;;;;0.20;100.00;100459.25;5036205;28;20481;-65
2023/11/27 02:00:31;;;;;;;2.50;1.23;;;;;;;0.12;100.00;100448.97;5036301;28;20505;-66
2023/11/27 02:03:00;;;;;;;3.30;1.67;;;;;;;-0.03;100.00;100452.13;5034782;28;20510;-65
2023/11/27 02:05:26;;;;;;;2.47;0.90;;;;;;;-0.06;100.00;100460.56;5035748;28;20476;-65
2023/11/27 02:07:54;;;;;;;1.97;0.73;;;;;;;-0.13;100.00;100451.91;5035342;28;20440;-65
2023/11/27 02:10:21;;;;;;;2.60;1.40;;;;;;;-0.12;100.00;100451.69;5035452;28;20514;-65
2023/11/27 02:12:48;;;;;;;1.80;0.50;;;;;;;-0.12;100.00;100443.69;5035814;28;20506;-65
2023/11/27 02:15:15;;;;;;;2.43;1.30;;;;;;;-0.10;100.00;100443.44;5035655;28;20494;-66
2023/11/27 02:17:42;;;;;;;2.20;0.90;;;;;;;-0.14;100.00;100440.44;5035328;28;20501;-66
2023/11/27 02:20:10;;;;;;;4.03;2.07;;;;;;;-0.10;100.00;100443.44;5035834;28;20455;-66
2023/11/27 02:22:37;;;;;;;2.03;0.67;;;;;;;-0.05;100.00;100440.88;5035445;28;20947;-66
2023/11/27 02:25:06;;;;;;;3.80;1.67;;;;;;;-0.02;100.00;100441.22;5035216;28;20534;-66
2023/11/27 02:27:33;;;;;;;3.50;1.20;;;;;;;-0.03;100.00;100436.16;5035769;28;20448;-66
2023/11/27 02:30:00;;;;;;;2.43;0.80;;;;;;;0.01;100.00;100431.97;5035564;28;20447;-66
2023/11/27 02:32:28;;;;;;;2.10;1.03;;;;;;;-0.04;100.00;100422.03;5035657;28;20439;-66
2023/11/27 02:34:54;;;;;;;2.33;0.90;;;;;;;0.02;100.00;100432.78;5035122;28;20987;-66
2023/11/27 02:37:21;;;;;;;21.97;3.13;;;;;;;0.09;100.00;100430.78;5035580;28;20540;-67
2023/11/27 02:39:48;;;;;;;4.13;1.70;;;;;;;0.15;100.00;100429.88;5035540;28;20467;-66
2023/11/27 02:42:16;;;;;;;3.57;1.70;;;;;;;0.20;100.00;100433.44;5035471;28;20445;-66
2023/11/27 02:44:42;;;;;;;4.53;1.27;;;;;;;0.07;100.00;100430.22;5035351;28;20542;-66
2023/11/27 02:47:09;;;;;;;1.80;0.50;;;;;;;0.10;100.00;100437.75;5034809;28;20962;-66
2023/11/27 02:49:36;;;;;;;3.07;0.90;;;;;;;0.14;100.00;100429.06;5034934;28;20445;-66
2023/11/27 02:52:03;;;;;;;2.20;1.10;;;;;;;0.19;100.00;100431.00;5035100;28;20534;-66
2023/11/27 02:54:31;;;;;;;1.87;0.63;;;;;;;0.16;100.00;100434.94;5034825;28;20887;-66
2023/11/27 02:56:57;;;;;;;2.00;0.80;;;;;;;0.16;100.00;100424.28;5034485;28;20554;-66
2023/11/27 02:59:26;;;;;;;2.27;0.60;;;;;;;0.02;100.00;100424.81;5035007;28;20450;-66
2023/11/27 03:01:52;;;;;;;1.83;0.67;;;;;;;0.02;100.00;100419.47;5034456;28;20534;-66
2023/11/27 03:04:19;;;;;;;2.00;0.67;;;;;;;0.03;100.00;100416.56;5035249;28;20463;-66
2023/11/27 03:06:46;;;;;;;3.20;1.90;;;;;;;-0.01;100.00;100418.88;5034392;28;20871;-66
2023/11/27 03:09:15;;;;;;;1.80;0.40;;;;;;;0.04;100.00;100410.19;5034216;28;20530;-66
2023/11/27 03:11:42;;;;;;;2.13;1.23;;;;;;;0.05;100.00;100403.03;5034822;28;20485;-66
2023/11/27 03:14:09;;;;;;;2.50;0.70;;;;;;;0.17;100.00;100415.25;5033597;28;20491;-65
2023/11/27 03:16:37;;;;;;;1.90;0.80;;;;;;;0.21;100.00;100397.75;5034376;28;20485;-65
2023/11/27 03:19:04;;;;;;;1.80;0.47;;;;;;;0.16;100.00;100405.66;5034824;28;20562;-65
2023/11/27 03:21:30;;;;;;;1.77;0.40;;;;;;;0.05;100.00;100395.84;5034881;28;20478;-65
2023/11/27 03:23:57;;;;;;;3.80;2.50;;;;;;;-0.03;100.00;100397.03;5034385;28;20463;-65
2023/11/27 03:26:24;;;;;;;1.90;0.60;;;;;;;-0.02;100.00;100392.50;5034372;28;20466;-65
2023/11/27 03:28:50;;;;;;;5.03;1.70;;;;;;;0.02;100.00;100382.22;5034306;28;20462;-65
2023/11/27 03:31:17;;;;;;;2.27;1.00;;;;;;;-0.06;100.00;100386.03;5034294;28;20526;-65
2023/11/27 03:33:45;;;;;;;5.20;1.63;;;;;;;-0.09;100.00;100374.03;5034317;28;20459;-66
2023/11/27 03:36:12;;;;;;;1.80;0.50;;;;;;;-0.07;100.00;100382.56;5034045;28;20848;-65
2023/11/27 03:38:39;;;;;;;2.00;0.73;;;;;;;-0.03;100.00;100377.59;5034487;28;20470;-65
2023/11/27 03:41:08;;;;;;;2.10;0.70;;;;;;;-0.08;100.00;100377.50;5034122;28;20489;-66
2023/11/27 03:43:34;;;;;;;1.70;0.40;;;;;;;0.02;100.00;100377.69;5034784;28;20459;-66
2023/11/27 03:46:01;;;;;;;1.80;0.50;;;;;;;0.08;100.00;100381.25;5033679;28;20454;-66
2023/11/27 03:48:28;;;;;;;3.03;1.17;;;;;;;-0.06;100.00;100378.84;5034283;28;21050;-66
2023/11/27 03:50:56;;;;;;;3.43;1.80;;;;;;;-0.06;100.00;100375.38;5034206;28;20526;-66
2023/11/27 03:53:22;;;;;;;3.50;1.13;;;;;;;-0.09;100.00;100378.50;5033868;28;21010;-66
2023/11/27 03:55:49;;;;;;;2.87;1.20;;;;;;;-0.08;100.00;100377.50;5033764;28;20566;-67
2023/11/27 03:58:16;;;;;;;2.30;1.60;;;;;;;-0.07;100.00;100385.22;5033760;28;20501;-66
2023/11/27 04:00:42;;;;;;;3.10;0.80;;;;;;;0.04;100.00;100380.09;5034072;28;20526;-66
2023/11/27 04:03:09;;;;;;;1.80;0.47;;;;;;;0.07;100.00;100382.31;5033674;28;20450;-67
2023/11/27 04:05:35;;;;;;;5.70;1.83;;;;;;;0.15;100.00;100374.75;5033354;28;20794;-65
2023/11/27 04:08:04;;;;;;;2.37;0.97;;;;;;;-0.01;100.00;100381.63;5033413;28;20482;-65
2023/11/27 04:10:31;;;;;;;5.10;1.30;;;;;;;-0.07;100.00;100374.59;5033531;28;20430;-65
2023/11/27 04:12:57;;;;;;;3.40;1.83;;;;;;;0.02;100.00;100377.69;5033263;28;20447;-65
2023/11/27 04:15:24;;;;;;;1.80;0.53;;;;;;;-0.06;100.00;100380.72;5033800;28;20455;-64
2023/11/27 04:17:51;;;;;;;2.73;0.87;;;;;;;-0.08;100.00;100374.84;5033483;28;20570;-64
2023/11/27 04:20:17;;;;;;;1.80;0.60;;;;;;;-0.07;100.00;100377.25;5033486;28;20467;-65
2023/11/27 04:22:44;;;;;;;2.00;0.73;;;;;;;0.02;100.00;100371.56;5033656;28;20478;-65
2023/11/27 04:25:12;;;;;;;1.87;0.60;;;;;;;0.08;100.00;100367.94;5033455;28;20470;-65
2023/11/27 04:27:39;;;;;;;1.70;0.40;;;;;;;0.03;100.00;100365.97;5037734;28;20521;-65
2023/11/27 04:30:08;;;;;;;2.83;0.97;;;;;;;-0.07;100.00;100373.78;5037378;28;21010;-65
2023/11/27 04:32:35;;;;;;;2.73;1.63;;;;;;;-0.10;100.00;100372.38;5037975;28;20466;-65
2023/11/27 04:35:03;;;;;;;1.70;0.40;;;;;;;-0.03;100.00;100367.75;5037727;28;20571;-65
2023/11/27 04:37:30;;;;;;;2.47;1.50;;;;;;;-0.06;100.00;100354.91;5038020;28;20526;-65
2023/11/27 04:39:57;;;;;;;3.17;1.23;;;;;;;-0.06;100.00;100349.56;5037686;28;20443;-65
2023/11/27 04:42:26;;;;;;;2.00;0.90;;;;;;;-0.09;100.00;100344.75;5037401;28;20474;-65
2023/11/27 04:44:53;;;;;;;1.93;0.47;;;;;;;0.06;100.00;100349.53;5037597;28;20469;-65
2023/11/27 04:47:20;;;;;;;2.30;1.00;;;;;;;0.07;100.00;100350.34;5036931;28;20440;-65
2023/11/27 04:49:47;;;;;;;4.87;1.33;;;;;;;0.03;100.00;100347.34;5037348;28;20481;-65
2023/11/27 04:52:14;;;;;;;3.43;1.90;;;;;;;0.07;100.00;100345.81;5037049;28;20443;-65
2023/11/27 04:54:40;;;;;;;3.20;1.50;;;;;;;0.04;100.00;100348.97;5036994;28;20463;-65
2023/11/27 04:57:07;;;;;;;1.77;0.50;;;;;;;-0.04;100.00;100354.69;5037129;28;20844;-65
2023/11/27 04:59:35;;;;;;;1.70;0.40;;;;;;;-0.06;100.00;100348.78;5037703;28;20497;-65
2023/11/27 05:02:01;;;;;;;2.10;0.90;;;;;;;-0.04;100.00;100338.72;5039604;28;20487;-65
2023/11/27 05:04:28;;;;;;;3.60;1.87;;;;;;;-0.03;100.00;100342.97;5036701;28;21001;-65
2023/11/27 05:06:55;;;;;;;2.00;0.87;;;;;;;0.02;100.00;100342.28;5036578;28;20435;-65
2023/11/27 05:09:21;;;;;;;1.70;0.40;;;;;;;-0.02;100.00;100334.75;5036632;28;20455;-65
2023/11/27 05:11:48;;;;;;;2.20;0.57;;;;;;;-0.03;100.00;100340.31;5036861;28;20443;-65
2023/11/27 05:14:15;;;;;;;2.50;1.43;;;;;;;-0.01;100.00;100344.34;5037028;28;20546;-65
2023/11/27 05:16:43;;;;;;;2.53;0.80;;;;;;;0.00;100.00;100334.53;5036325;28;20548;-65
2023/11/27 05:19:09;;;;;;;3.10;1.37;;;;;;;0.03;100.00;100338.56;5037033;28;20494;-65
2023/11/27 05:21:36;;;;;;;3.13;1.27;;;;;;;0.12;100.00;100332.59;5036614;28;20815;-65
2023/11/27 05:24:02;;;;;;;2.27;1.23;;;;;;;0.18;100.00;100336.19;5036513;28;20490;-65
2023/11/27 05:26:29;;;;;;;2.83;1.03;;;;;;;0.14;100.00;100325.19;5036539;28;20453;-65
2023/11/27 05:28:56;;;;;;;2.53;1.43;;;;;;;0.16;100.00;100320.44;5036175;28;20439;-65
2023/11/27 05:31:23;;;;;;;2.37;0.83;;;;;;;0.19;100.00;100314.63;5036488;28;20464;-65
2023/11/27 05:33:52;;;;;;;1.90;0.60;;;;;;;0.21;100.00;100309.06;5036641;28;20462;-65
2023/11/27 05:36:19;;;;;;;1.80;0.60;;;;;;;0.23;100.00;100307.78;5036385;28;20483;-65
2023/11/27 05:38:45;;;;;;;4.43;1.43;;;;;;;0.27;100.00;100308.13;5035866;28;21025;-65
2023/11/27 05:41:12;;;;;;;2.30;0.87;;;;;;;0.27;100.00;100317.94;5036660;28;20447;-65
2023/11/27 05:43:39;;;;;;;3.23;0.77;;;;;;;0.24;100.00;100308.59;5036235;28;20502;-65
2023/11/27 05:46:06;;;;;;;2.10;0.70;;;;;;;0.21;100.00;100303.75;5036946;28;20443;-65
2023/11/27 05:48:33;;;;;;;3.17;1.70;;;;;;;0.20;100.00;100305.59;5037197;28;20477;-65
2023/11/27 05:51:01;;;;;;;1.80;0.40;;;;;;;0.29;100.00;100305.22;5036233;28;20538;-65
2023/11/27 05:53:27;;;;;;;2.50;1.03;;;;;;;0.40;100.00;100301.66;5036582;28;20520;-65
2023/11/27 05:55:54;;;;;;;1.90;0.60;;;;;;;0.44;100.00;100297.47;5036483;28;20534;-65
2023/11/27 05:58:21;;;;;;;2.00;0.77;;;;;;;0.59;100.00;100294.25;5035646;28;20552;-65
2023/11/27 06:00:47;;;;;;;1.90;0.50;;;;;;;0.57;100.00;100285.69;5036467;28;20535;-65
2023/11/27 06:03:14;;;;;;;2.57;1.63;;;;;;;0.62;100.00;100291.09;5036543;28;20439;-65
2023/11/27 06:05:41;;;;;;;2.20;0.90;;;;;;;0.58;100.00;100293.47;5036177;28;20829;-65
2023/11/27 06:08:09;;;;;;;1.80;0.60;;;;;;;0.57;100.00;100291.03;5035608;28;20817;-65
2023/11/27 06:10:36;;;;;;;3.43;0.93;;;;;;;0.56;100.00;100292.88;5035795;28;20424;-65
2023/11/27 06:13:02;;;;;;;2.00;0.50;;;;;;;0.53;100.00;100297.88;5035686;28;20538;-65
2023/11/27 06:15:29;;;;;;;2.70;1.90;;;;;;;0.51;100.00;100292.81;5035537;28;20592;-65
2023/11/27 06:17:56;;;;;;;1.90;0.80;;;;;;;0.53;100.00;100288.03;5035143;28;20523;-65
2023/11/27 06:20:23;;;;;;;2.40;0.60;;;;;;;0.55;100.00;100295.78;5035755;28;20443;-65
2023/11/27 06:22:51;;;;;;;1.73;0.40;;;;;;;0.57;100.00;100289.16;5035601;28;20443;-65
2023/11/27 06:25:19;;;;;;;4.33;1.77;;;;;;;0.56;100.00;100284.09;5035420;28;20467;-65
2023/11/27 06:27:46;;;;;;;1.73;0.40;;;;;;;0.70;100.00;100286.16;5035422;28;20439;-65
2023/11/27 06:30:14;;;;;;;2.60;1.50;;;;;;;0.79;100.00;100277.78;5035817;28;20522;-65
2023/11/27 06:32:41;;;;;;;3.13;1.10;;;;;;;0.77;100.00;100286.03;5035793;28;20751;-65
2023/11/27 06:35:11;;;;;;;1.80;0.50;;;;;;;0.80;100.00;100292.72;5035034;28;20494;-64
2023/11/27 06:37:38;;;;;;;6.33;3.27;;;;;;;0.90;100.00;100295.53;5034768;28;20475;-65
2023/11/27 06:40:06;;;;;;;2.50;1.00;;;;;;;0.81;100.00;100286.34;5035055;28;20500;-65
2023/11/27 06:42:34;;;;;;;4.83;1.63;;;;;;;0.83;100.00;100285.03;5035140;28;20447;-65
2023/11/27 06:45:00;;;;;;;2.10;0.70;;;;;;;0.88;100.00;100285.09;5034846;28;20459;-65
2023/11/27 06:47:27;;;;;;;2.90;1.53;;;;;;;0.90;100.00;100284.88;5034888;28;20850;-65
2023/11/27 06:49:54;;;;;;;2.20;1.00;;;;;;;0.95;100.00;100285.75;5034766;28;20439;-65
2023/11/27 06:52:19;;;;;;;2.00;0.93;;;;;;;0.91;100.00;100275.81;5035083;28;20535;-65
2023/11/27 06:54:46;;;;;;;1.90;0.70;;;;;;;0.94;100.00;100280.69;5034894;28;20538;-65
2023/11/27 06:57:12;;;;;;;4.03;2.20;;;;;;;0.92;100.00;100274.75;5034585;28;20279;-66
2023/11/27 06:59:40;;;;;;;2.27;0.70;;;;;;;0.92;100.00;100272.91;5034650;28;20475;-66
2023/11/27 07:02:07;;;;;;;1.90;0.60;;;;;;;1.04;100.00;100270.16;5034579;28;20966;-65
2023/11/27 07:04:34;;;;;;;1.77;0.40;;;;;;;1.08;100.00;100276.59;5034486;28;20487;-65
2023/11/27 07:07:00;;;;;;;7.27;3.20;;;;;;;1.17;100.00;100275.13;5034702;28;20442;-65
2023/11/27 07:09:27;;;;;;;2.83;0.63;;;;;;;1.20;100.00;100279.19;5057120;22;20538;-68
2023/11/27 07:11:54;;;;;;;2.13;0.90;;;;;;;1.24;100.00;100278.44;5054177;28;20446;-68
2023/11/27 07:14:21;;;;;;;3.20;1.50;;;;;;;1.30;100.00;100278.50;5054283;28;20485;-68
2023/11/27 07:16:49;;;;;;;1.87;0.67;;;;;;;1.27;100.00;100272.59;5054330;28;21053;-68
2023/11/27 07:19:16;;;;;;;3.90;1.57;;;;;;;1.38;100.00;100270.88;5053910;28;20851;-68
2023/11/27 07:21:42;;;;;;;5.53;0.90;;;;;;;1.40;100.00;100267.94;5054566;28;20492;-68
2023/11/27 07:24:09;;;;;;;2.30;0.73;;;;;;;1.46;100.00;100267.78;5054713;28;20966;-69
2023/11/27 07:26:37;;;;;;;2.50;0.83;;;;;;;1.49;100.00;100255.78;5054852;28;20485;-68
2023/11/27 07:29:03;;;;;;;8.43;1.60;;;;;;;1.52;100.00;100264.09;5054593;28;20828;-68
2023/11/27 07:31:31;;;;;;;2.20;1.33;;;;;;;1.53;100.00;100267.56;5054933;28;20867;-69
2023/11/27 07:34:00;;;;;;;3.07;1.63;;;;;;;1.55;100.00;100264.63;5054734;28;20518;-70
2023/11/27 07:36:27;;;;;;;3.10;1.87;;;;;;;1.65;100.00;100260.25;5055000;28;20453;-69
2023/11/27 07:38:54;;;;;;;7.60;2.17;;;;;;;1.67;100.00;100257.31;5054622;28;20536;-70
2023/11/27 07:41:23;;;;;;;2.20;0.70;;;;;;;1.66;100.00;100256.50;5054647;28;20446;-70
2023/11/27 07:43:49;;;;;;;1.80;0.60;;;;;;;1.69;100.00;100253.34;5054602;28;20462;-68
2023/11/27 07:46:16;;;;;;;3.00;1.33;;;;;;;1.73;100.00;100262.47;5054888;28;20442;-71
2023/11/27 07:48:43;;;;;;;2.67;1.13;;;;;;;1.78;100.00;100253.72;5053510;28;20441;-71
2023/11/27 07:51:11;;;;;;;3.87;1.23;;;;;;;1.81;100.00;100252.38;5054659;28;20446;-70
2023/11/27 07:53:38;;;;;;;4.30;2.20;;;;;;;1.84;100.00;100247.34;5054525;28;20549;-71
2023/11/27 07:56:07;;;;;;;3.33;2.53;;;;;;;1.91;100.00;100242.63;5054608;28;20533;-71
2023/11/27 07:58:33;;;;;;;2.00;0.70;;;;;;;1.94;100.00;100247.44;5054333;28;20490;-69
2023/11/27 08:01:00;;;;;;;4.53;2.67;;;;;;;2.00;100.00;100248.34;5053812;28;20861;-71
2023/11/27 08:03:26;;;;;;;2.20;0.90;;;;;;;1.99;100.00;100252.88;5054621;28;20872;-71
2023/11/27 08:05:53;;;;;;;3.13;0.57;;;;;;;1.95;100.00;100251.75;5054756;28;20533;-71
2023/11/27 08:08:21;;;;;;;3.60;1.47;;;;;;;1.94;100.00;100246.66;5054508;28;20526;-69
2023/11/27 08:10:49;;;;;;;3.23;2.00;;;;;;;2.02;100.00;100247.00;5054392;28;20458;-70
2023/11/27 08:13:15;;;;;;;4.57;1.17;;;;;;;2.03;100.00;100245.13;5056523;28;20462;-70
2023/11/27 08:15:43;;;;;;;3.87;1.77;;;;;;;2.05;100.00;100243.03;5057537;28;20441;-70
2023/11/27 08:18:11;;;;;;;2.20;0.73;;;;;;;2.08;100.00;100253.22;5054969;28;20485;-69
2023/11/27 08:20:38;;;;;;;2.37;1.33;;;;;;;2.12;100.00;100248.16;5055046;28;20446;-71
2023/11/27 08:23:05;;;;;;;5.07;2.23;;;;;;;2.17;100.00;100254.38;5054842;28;20442;-70
2023/11/27 08:25:33;;;;;;;3.20;0.93;;;;;;;2.17;100.00;100254.38;5054647;28;20451;-70
2023/11/27 08:28:02;;;;;;;2.10;0.70;;;;;;;2.20;100.00;100248.50;5054917;28;20496;-70
2023/11/27 08:30:32;;;;;;;2.40;1.10;;;;;;;2.22;100.00;100253.63;5055093;28;20442;-70
2023/11/27 08:32:59;;;;;;;1.83;0.50;;;;;;;2.27;100.00;100246.44;5054520;28;20414;-70
2023/11/27 08:35:26;;;;;;;3.27;2.20;;;;;;;2.27;100.00;100245.63;5054030;28;20513;-70
2023/11/27 08:37:53;;;;;;;2.90;0.80;;;;;;;2.33;100.00;100249.16;5054333;28;20572;-70
2023/11/27 08:40:21;;;;;;;2.97;1.23;;;;;;;2.40;100.00;100244.41;5054584;28;20444;-70
2023/11/27 08:42:49;;;;;;;2.37;0.90;;;;;;;2.44;100.00;100245.50;5054563;28;20453;-72
2023/11/27 08:45:18;;;;;;;1.80;0.50;;;;;;;2.48;100.00;100238.59;5053903;28;20513;-70
2023/11/27 08:47:50;;;;;;;3.60;1.03;;;;;;;2.50;100.00;100234.59;5054286;28;20461;-70
2023/11/27 08:50:17;;;;;;;1.97;0.60;;;;;;;2.52;100.00;100231.66;5054107;28;20509;-70
2023/11/27 08:52:44;;;;;;;2.90;1.37;;;;;;;2.54;100.00;100234.88;5053903;28;20930;-70
2023/11/27 08:55:11;;;;;;;2.40;1.03;;;;;;;2.56;100.00;100227.41;5053547;28;20821;-70
2023/11/27 08:57:37;;;;;;;1.80;0.47;;;;;;;2.61;100.00;100222.13;5053924;28;20513;-70
2023/11/27 09:00:11;;;;;;;1.80;0.50;;;;;;;2.66;100.00;100216.81;5053733;28;20827;-70
2023/11/27 09:02:38;;;;;;;1.80;0.50;;;;;;;2.68;100.00;100209.31;5053711;28;20431;-70
2023/11/27 09:05:06;;;;;;;2.47;1.47;;;;;;;2.69;100.00;100210.13;5054020;28;20458;-70
2023/11/27 09:07:33;;;;;;;3.93;1.43;;;;;;;2.69;100.00;100202.91;5053607;28;20484;-71
2023/11/27 09:10:00;;;;;;;2.40;1.30;;;;;;;2.75;100.00;100204.56;5053486;28;20946;-70
2023/11/27 09:12:26;;;;;;;2.43;0.97;;;;;;;2.89;100.00;100204.91;5055791;28;20444;-70
2023/11/27 09:14:53;;;;;;;3.40;0.87;;;;;;;3.07;100.00;100205.53;5057373;28;20537;-70
2023/11/27 09:17:21;;;;;;;1.90;0.60;;;;;;;3.19;100.00;100203.44;5057278;28;20853;-70
2023/11/27 09:19:48;;;;;;;2.77;1.67;;;;;;;3.67;100.00;100204.91;5056698;28;20445;-70
2023/11/27 09:22:15;;;;;;;3.07;2.00;;;;;;;3.68;99.97;100211.91;5057123;28;20492;-70
2023/11/27 09:24:42;;;;;;;5.47;2.70;;;;;;;3.62;99.46;100207.56;5056862;28;20536;-70
2023/11/27 09:27:09;;;;;;;3.13;0.80;;;;;;;3.62;99.13;100212.13;5056771;28;20435;-70
2023/11/27 09:29:36;;;;;;;2.33;0.80;;;;;;;3.71;99.16;100200.63;5056936;28;20446;-70
2023/11/27 09:32:04;;;;;;;4.00;1.90;;;;;;;3.78;98.77;100190.47;5056827;28;20533;-72
2023/11/27 09:34:32;;;;;;;5.77;1.53;;;;;;;3.87;98.07;100196.13;5056619;28;20461;-69
2023/11/27 09:36:59;;;;;;;1.90;0.60;;;;;;;3.96;97.81;100191.84;5057321;28;20533;-69
2023/11/27 09:39:26;;;;;;;2.43;1.20;;;;;;;4.04;96.17;100188.63;5056183;28;20539;-69
2023/11/27 09:41:53;;;;;;;3.13;1.20;;;;;;;4.05;95.56;100195.59;5056220;28;20528;-69
2023/11/27 09:44:20;;;;;;;3.53;1.07;;;;;;;4.07;95.49;100189.97;5056669;28;20462;-69
2023/11/27 09:46:47;;;;;;;2.20;0.90;;;;;;;3.97;95.66;100187.28;5056677;28;20516;-69
2023/11/27 09:49:16;;;;;;;4.37;1.77;;;;;;;3.94;95.86;100182.44;5056743;28;20526;-69
2023/11/27 09:51:46;;;;;;;4.40;1.77;;;;;;;3.83;95.61;100178.16;5057439;28;20449;-69
2023/11/27 09:54:14;;;;;;;2.50;1.20;;;;;;;3.80;95.29;100172.25;5055959;28;20980;-69
2023/11/27 09:56:44;;;;;;;2.70;0.87;;;;;;;3.76;95.97;100171.22;5056084;28;20492;-71
2023/11/27 09:59:12;;;;;;;6.03;1.70;;;;;;;3.82;96.04;100169.34;5056154;28;20490;-69
2023/11/27 10:01:39;;;;;;;3.37;1.23;;;;;;;3.88;95.30;100162.09;5056244;28;20474;-70
2023/11/27 10:04:08;;;;;;;2.80;1.40;;;;;;;3.83;96.05;100170.94;5056015;28;20462;-69
2023/11/27 10:06:41;;;;;;;3.63;1.23;;;;;;;4.01;95.81;100166.94;5058077;28;20481;-69
2023/11/27 10:09:13;;;;;;;2.40;1.07;;;;;;;4.09;95.39;100152.19;5058166;28;20461;-69
2023/11/27 10:11:41;;;;;;;2.80;1.50;;;;;;;4.02;95.02;100150.56;5058509;28;20986;-69
2023/11/27 10:14:09;;;;;;;2.93;1.47;;;;;;;4.00;94.75;100149.25;5057786;28;20537;-69
2023/11/27 10:16:36;;;;;;;2.30;0.93;;;;;;;4.07;94.34;100144.41;5058615;28;20449;-69
2023/11/27 10:19:06;;;;;;;4.33;1.70;;;;;;;4.09;93.97;100144.16;5057042;28;20513;-69
2023/11/27 10:21:34;;;;;;;3.30;1.90;;;;;;;4.04;94.17;100136.91;5057308;28;20438;-69
2023/11/27 10:24:01;;;;;;;3.90;1.50;;;;;;;4.07;95.22;100130.22;5055023;28;20479;-70
2023/11/27 10:26:31;;;;;;;3.17;1.67;;;;;;;4.04;95.97;100118.16;5056357;28;20548;-69
2023/11/27 10:28:58;;;;;;;3.50;0.70;;;;;;;4.07;96.75;100116.81;5055647;28;20819;-69
2023/11/27 10:31:26;;;;;;;4.23;1.27;;;;;;;4.18;96.53;100113.84;5055978;28;20446;-69
2023/11/27 10:33:53;;;;;;;8.53;1.70;;;;;;;4.25;95.99;100113.56;5055650;28;20469;-69
2023/11/27 10:36:23;;;;;;;2.50;1.33;;;;;;;4.44;94.77;100116.50;5055512;28;20526;-70
2023/11/27 10:39:00;;;;;;;2.20;0.83;;;;;;;4.41;94.36;100104.44;5055337;28;20969;-70
2023/11/27 10:41:30;;;;;;;3.23;1.20;;;;;;;4.38;94.20;100098.81;5055861;28;20454;-70
2023/11/27 10:43:59;;;;;;;7.70;2.33;;;;;;;4.35;93.94;100100.16;5055886;28;20497;-68
2023/11/27 10:46:29;;;;;;;6.60;2.33;;;;;;;4.37;94.62;100106.03;5055999;28;20496;-70
2023/11/27 10:48:59;;;;;;;3.30;1.63;;;;;;;4.48;94.54;100101.47;5055405;28;20446;-70
2023/11/27 10:51:30;;;;;;;4.33;2.00;;;;;;;4.46;94.68;100099.06;5055393;28;20926;-70
2023/11/27 10:53:59;;;;;;;4.50;2.10;;;;;;;4.57;94.65;100101.72;5055090;28;20469;-69
2023/11/27 10:56:28;;;;;;;3.50;1.40;;;;;;;4.66;92.87;100084.00;5054486;28;20446;-70
2023/11/27 10:58:56;;;;;;;6.83;2.17;;;;;;;4.63;92.91;100077.28;5055277;28;20486;-70
2023/11/27 11:01:30;;;;;;;4.20;2.00;;;;;;;4.66;93.21;100071.38;5054874;28;20442;-70
2023/11/27 11:04:09;;;;;;;2.90;1.33;;;;;;;4.64;93.20;100068.16;5055830;28;20467;-70
2023/11/27 11:06:39;;;;;;;2.70;1.10;;;;;;;4.54;92.90;100066.31;5055844;28;20470;-70
2023/11/27 11:09:12;;;;;;;2.70;1.50;;;;;;;4.57;93.15;100062.28;5055246;28;20469;-70
2023/11/27 11:11:42;;;;;;;2.70;1.20;;;;;;;4.50;94.53;100061.78;5055125;28;20946;-70
2023/11/27 11:14:13;;;;;;;12.37;2.90;;;;;;;4.51;94.08;100058.00;5055528;28;20519;-70
2023/11/27 11:16:50;;;;;;;3.80;1.37;;;;;;;4.49;94.58;100055.59;5055355;28;20974;-70
2023/11/27 11:19:27;;;;;;;5.83;1.70;;;;;;;4.58;94.20;100042.44;5054891;28;20470;-71
2023/11/27 11:22:01;;;;;;;3.60;1.03;;;;;;;4.67;94.04;100040.00;5054950;28;20423;-71
2023/11/27 11:24:37;;;;;;;2.67;1.07;;;;;;;4.62;94.49;100035.44;5054979;28;20508;-72